createdAt,value
2018-06-15T16:16:12.360Z,934.36
2018-06-15T16:16:25.260Z,934.38
2018-06-15T16:16:38.179Z,934.38
2018-06-15T16:16:51.183Z,934.42
2018-06-15T16:17:04.144Z,934.37
2018-06-15T16:17:16.583Z,934.36
2018-06-15T16:17:29.517Z,934.39
2018-06-15T16:17:41.534Z,934.36
2018-06-15T16:17:54.037Z,934.38
2018-06-15T16:18:06.049Z,934.39
2018-06-15T16:18:19.044Z,934.35
2018-06-15T16:18:32.099Z,934.37
2018-06-15T16:18:46.346Z,934.38
2018-06-15T16:18:57.873Z,934.39
2018-06-15T16:19:10.794Z,934.38
2018-06-15T16:19:23.788Z,934.37
2018-06-15T16:19:36.748Z,934.4
2018-06-15T16:19:49.186Z,934.41
2018-06-15T16:20:01.656Z,934.34
2018-06-15T16:20:13.854Z,934.38
2018-06-15T16:20:26.475Z,934.41
2018-06-15T16:20:39.412Z,934.35
2018-06-15T16:20:52.446Z,934.37
2018-06-15T16:21:04.982Z,934.37
2018-06-15T16:21:17.519Z,934.35
2018-06-15T16:21:30.010Z,934.31
2018-06-15T16:21:42.990Z,934.34
2018-06-15T16:21:55.550Z,934.34
2018-06-15T16:22:08.076Z,934.32
2018-06-15T16:22:19.659Z,934.29
2018-06-15T16:22:32.236Z,934.31
2018-06-15T16:22:44.743Z,934.29
2018-06-15T16:22:57.286Z,934.29
2018-06-15T16:23:09.774Z,934.26
2018-06-15T16:23:22.250Z,934.28
2018-06-15T16:23:34.785Z,934.25
2018-06-15T16:23:47.752Z,934.23
2018-06-15T16:24:00.679Z,934.24
2018-06-15T16:24:12.721Z,934.24
2018-06-15T16:24:24.774Z,934.27
2018-06-15T16:24:37.282Z,934.23
2018-06-15T16:24:49.760Z,934.24
2018-06-15T16:25:02.305Z,934.24
2018-06-15T16:25:15.265Z,934.19
2018-06-15T16:25:27.780Z,934.25
2018-06-15T16:25:39.770Z,934.21
2018-06-15T16:25:52.732Z,934.19
2018-06-15T16:26:05.206Z,934.17
2018-06-15T16:26:18.230Z,934.18
2018-06-15T16:26:31.243Z,934.18
2018-06-15T16:26:44.224Z,934.16
2018-06-15T16:26:56.775Z,934.16
2018-06-15T16:27:09.330Z,934.18
2018-06-15T16:27:21.529Z,934.18
2018-06-15T16:27:34.695Z,934.18
2018-06-15T16:27:47.288Z,934.18
2018-06-15T16:27:59.893Z,934.17
2018-06-15T16:28:12.448Z,934.19
2018-06-15T16:28:25.333Z,934.17
2018-06-15T16:28:38.264Z,934.15
2018-06-15T16:28:50.822Z,934.13
2018-06-15T16:29:03.332Z,934.13
2018-06-15T16:29:14.961Z,934.16
2018-06-15T16:29:27.928Z,934.15
2018-06-15T16:29:40.881Z,934.13
2018-06-15T16:29:52.924Z,934.15
2018-06-15T16:30:04.998Z,934.14
2018-06-15T16:30:18.002Z,934.14
2018-06-15T16:30:30.519Z,934.12
2018-06-15T16:30:43.472Z,934.08
2018-06-15T16:30:56.511Z,934.09
2018-06-15T16:31:08.610Z,934.1
2018-06-15T16:31:21.219Z,934.11
2018-06-15T16:31:33.269Z,934.09
2018-06-15T16:31:45.271Z,934.11
2018-06-15T16:31:57.691Z,934.07
2018-06-15T16:32:09.778Z,934.08
2018-06-15T16:32:22.724Z,934.01
2018-06-15T16:32:34.725Z,934.05
2018-06-15T16:32:47.712Z,934.06
2018-06-15T16:32:59.350Z,934.08
2018-06-15T16:33:11.380Z,934.08
2018-06-15T16:33:23.873Z,934.06
2018-06-15T16:33:36.380Z,934.07
2018-06-15T16:33:49.331Z,934.05
2018-06-15T16:34:01.830Z,934.03
2018-06-15T16:34:14.366Z,934.03
2018-06-15T16:34:26.842Z,934.04
2018-06-15T16:34:39.380Z,934.04
2018-06-15T16:34:52.413Z,934.01
2018-06-15T16:35:04.950Z,934.04
2018-06-15T16:35:17.427Z,934.05
2018-06-15T16:35:29.905Z,934.05
2018-06-15T16:35:42.855Z,934.04
2018-06-15T16:35:55.336Z,934.07
2018-06-15T16:36:07.848Z,934.04
2018-06-15T16:36:20.823Z,934.07
2018-06-15T16:36:33.327Z,934.04
2018-06-15T16:36:44.905Z,934.01
2018-06-15T16:36:56.962Z,934.04
2018-06-15T16:37:09.390Z,934.08
2018-06-15T16:37:22.142Z,934.06
2018-06-15T16:37:34.634Z,934.04
2018-06-15T16:37:46.256Z,934.07
2018-06-15T16:37:58.792Z,934.04
2018-06-15T16:38:11.288Z,934.07
2018-06-15T16:38:23.779Z,934.04
2018-06-15T16:38:36.273Z,934.04
2018-06-15T16:38:48.727Z,934.05
2018-06-15T16:39:01.255Z,934.05
2018-06-15T16:39:14.247Z,934.04
2018-06-15T16:39:27.233Z,934.04
2018-06-15T16:39:40.223Z,934
2018-06-15T16:39:53.252Z,934.03
2018-06-15T16:40:05.771Z,934.04
2018-06-15T16:40:18.339Z,934.06
2018-06-15T16:40:31.272Z,934.04
2018-06-15T16:40:43.741Z,934.06
2018-06-15T16:40:56.226Z,933.99
2018-06-15T16:41:08.751Z,934.02
2018-06-15T16:41:21.298Z,934.02
2018-06-15T16:41:33.366Z,934.01
2018-06-15T16:41:46.342Z,934.04
2018-06-15T16:41:59.314Z,934.03
2018-06-15T16:42:11.368Z,934.02
2018-06-15T16:42:23.914Z,934.08
2018-06-15T16:42:36.856Z,934.04
2018-06-15T16:42:49.820Z,934.04
2018-06-15T16:43:01.903Z,934.05
2018-06-15T16:43:13.947Z,934.02
2018-06-15T16:43:27.211Z,934.05
2018-06-15T16:43:39.719Z,933.99
2018-06-15T16:43:52.639Z,934.01
2018-06-15T16:44:04.709Z,934.01
2018-06-15T16:44:16.805Z,934.03
2018-06-15T16:44:29.279Z,934.02
2018-06-15T16:44:41.736Z,934.04
2018-06-15T16:44:54.761Z,934.03
2018-06-15T16:45:06.781Z,934.02
2018-06-15T16:45:19.343Z,934.02
2018-06-15T16:45:32.378Z,933.99
2018-06-15T16:45:45.370Z,934.03
2018-06-15T16:45:58.301Z,934.02
2018-06-15T16:46:09.844Z,934.02
2018-06-15T16:46:22.938Z,934.03
2018-06-15T16:46:35.938Z,934.03
2018-06-15T16:46:48.839Z,934.01
2018-06-15T16:47:01.300Z,934.02
2018-06-15T16:47:12.914Z,934.04
2018-06-15T16:47:25.894Z,934.04
2018-06-15T16:47:38.397Z,934
2018-06-15T16:47:50.870Z,934.01
2018-06-15T16:48:02.883Z,934.04
2018-06-15T16:48:14.975Z,934
2018-06-15T16:48:28.105Z,934.01
2018-06-15T16:48:41.302Z,933.96
2018-06-15T16:48:54.240Z,933.97
2018-06-15T16:49:06.776Z,933.94
2018-06-15T16:49:19.263Z,933.94
2018-06-15T16:49:31.767Z,933.95
2018-06-15T16:49:44.225Z,933.92
2018-06-15T16:49:56.778Z,933.95
2018-06-15T16:50:09.759Z,933.88
2018-06-15T16:50:22.263Z,933.92
2018-06-15T16:50:34.810Z,933.92
2018-06-15T16:50:47.686Z,933.91
2018-06-15T16:51:00.233Z,933.91
2018-06-15T16:51:12.692Z,933.9
2018-06-15T16:51:25.209Z,933.93
2018-06-15T16:51:38.148Z,933.92
2018-06-15T16:51:50.636Z,933.9
2018-06-15T16:52:02.226Z,933.9
2018-06-15T16:52:14.760Z,933.94
2018-06-15T16:52:26.849Z,933.92
2018-06-15T16:52:39.378Z,933.94
2018-06-15T16:52:51.886Z,933.93
2018-06-15T16:53:04.815Z,933.94
2018-06-15T16:53:17.284Z,933.92
2018-06-15T16:53:29.837Z,933.91
2018-06-15T16:53:42.816Z,933.92
2018-06-15T16:53:55.343Z,933.92
2018-06-15T16:54:07.843Z,933.93
2018-06-15T16:54:19.920Z,933.94
2018-06-15T16:54:32.458Z,933.89
2018-06-15T16:54:44.944Z,933.97
2018-06-15T16:54:57.378Z,933.94
2018-06-15T16:55:09.863Z,933.94
2018-06-15T16:55:22.414Z,933.91
2018-06-15T16:55:35.319Z,933.91
2018-06-15T16:55:47.794Z,933.92
2018-06-15T16:56:00.783Z,933.91
2018-06-15T16:56:13.308Z,933.91
2018-06-15T16:56:26.399Z,933.88
2018-06-15T16:56:38.853Z,933.92
2018-06-15T16:56:51.342Z,933.89
2018-06-15T16:57:04.330Z,933.88
2018-06-15T16:57:16.410Z,933.91
2018-06-15T16:57:29.322Z,933.85
2018-06-15T16:57:41.820Z,933.9
2018-06-15T16:57:54.339Z,933.88
2018-06-15T16:58:06.857Z,933.85
2018-06-15T16:58:19.409Z,933.87
2018-06-15T16:58:32.377Z,933.86
2018-06-15T16:58:44.909Z,933.86
2018-06-15T16:58:57.457Z,933.79
2018-06-15T16:59:10.433Z,933.83
2018-06-15T16:59:22.903Z,933.82
2018-06-15T16:59:34.895Z,933.78
2018-06-15T16:59:47.861Z,933.79
2018-06-15T17:00:00.816Z,933.79
2018-06-15T17:00:12.958Z,933.79
2018-06-15T17:00:24.986Z,933.81
2018-06-15T17:00:37.981Z,933.82
2018-06-15T17:00:49.989Z,933.77
2018-06-15T17:01:02.508Z,933.78
2018-06-15T17:01:15.055Z,933.79
2018-06-15T17:01:27.562Z,933.77
2018-06-15T17:01:40.761Z,933.78
2018-06-15T17:01:53.865Z,933.74
2018-06-15T17:02:07.377Z,933.77
2018-06-15T17:02:19.505Z,933.81
2018-06-15T17:02:32.312Z,933.78
2018-06-15T17:02:45.513Z,933.78
2018-06-15T17:02:58.608Z,933.76
2018-06-15T17:03:11.427Z,933.76
2018-06-15T17:03:23.519Z,933.77
2018-06-15T17:03:36.560Z,933.73
2018-06-15T17:03:50.102Z,933.73
2018-06-15T17:04:02.716Z,933.76
2018-06-15T17:04:15.309Z,933.76
2018-06-15T17:04:27.885Z,933.71
2018-06-15T17:04:40.488Z,933.72
2018-06-15T17:04:53.544Z,933.73
2018-06-15T17:05:06.587Z,933.76
2018-06-15T17:05:19.896Z,933.78
2018-06-15T17:05:32.442Z,933.78
2018-06-15T17:05:45.174Z,933.77
2018-06-15T17:05:57.778Z,933.81
2018-06-15T17:06:11.267Z,933.83
2018-06-15T17:06:23.853Z,933.85
2018-06-15T17:06:35.505Z,933.82
2018-06-15T17:06:48.104Z,933.84
2018-06-15T17:07:00.696Z,933.81
2018-06-15T17:07:13.817Z,933.87
2018-06-15T17:07:26.635Z,933.89
2018-06-15T17:07:39.183Z,933.89
2018-06-15T17:07:52.217Z,933.91
2018-06-15T17:08:04.816Z,933.87
2018-06-15T17:08:17.390Z,933.91
2018-06-15T17:08:29.779Z,933.92
2018-06-15T17:08:41.889Z,933.93
2018-06-15T17:08:54.496Z,933.94
2018-06-15T17:09:07.534Z,933.9
2018-06-15T17:09:20.776Z,933.93
2018-06-15T17:09:33.376Z,933.92
2018-06-15T17:09:46.105Z,933.93
2018-06-15T17:09:58.904Z,934.03
2018-06-15T17:10:11.212Z,934
2018-06-15T17:10:24.277Z,934.01
2018-06-15T17:10:37.802Z,934.02
2018-06-15T17:10:50.406Z,933.98
2018-06-15T17:11:03.025Z,934.02
2018-06-15T17:11:15.611Z,934.09
2018-06-15T17:11:28.410Z,934.03
2018-06-15T17:11:41.033Z,934.14
2018-06-15T17:11:55.740Z,934.11
2018-06-15T17:12:08.350Z,934.02
2018-06-15T17:12:21.636Z,934.11
2018-06-15T17:12:34.276Z,934.07
2018-06-15T17:12:47.513Z,934.03
2018-06-15T17:13:00.549Z,934.14
2018-06-15T17:13:13.549Z,934
2018-06-15T17:13:25.630Z,934.03
2018-06-15T17:13:38.331Z,934.06
2018-06-15T17:13:50.964Z,934.08
2018-06-15T17:14:03.765Z,933.99
2018-06-15T17:14:16.822Z,934.09
2018-06-15T17:14:29.961Z,933.97
2018-06-15T17:14:42.682Z,933.98
2018-06-15T17:14:55.755Z,933.94
2018-06-15T17:15:08.348Z,933.94
2018-06-15T17:15:20.466Z,933.97
2018-06-15T17:15:32.955Z,933.97
2018-06-15T17:15:46.016Z,934.03
2018-06-15T17:15:58.832Z,933.94
2018-06-15T17:16:11.638Z,934.01
2018-06-15T17:16:24.286Z,933.93
2018-06-15T17:16:37.708Z,933.9
2018-06-15T17:16:50.283Z,933.87
2018-06-15T17:17:03.187Z,933.87
2018-06-15T17:17:15.839Z,933.89
2018-06-15T17:17:28.122Z,933.87
2018-06-15T17:17:41.613Z,933.86
2018-06-15T17:17:54.655Z,933.88
2018-06-15T17:18:07.349Z,933.91
2018-06-15T17:18:19.468Z,933.86
2018-06-15T17:18:32.849Z,933.89
2018-06-15T17:18:45.277Z,933.87
2018-06-15T17:18:58.756Z,933.86
2018-06-15T17:19:11.759Z,933.89
2018-06-15T17:19:24.348Z,933.89
2018-06-15T17:19:36.504Z,933.89
2018-06-15T17:19:49.581Z,933.85
2018-06-15T17:20:02.710Z,933.86
2018-06-15T17:20:15.800Z,933.87
2018-06-15T17:20:28.915Z,933.91
2018-06-15T17:20:41.686Z,933.88
2018-06-15T17:20:54.529Z,933.87
2018-06-15T17:21:07.727Z,933.93
2018-06-15T17:21:20.322Z,933.96
2018-06-15T17:21:32.879Z,933.89
2018-06-15T17:21:45.020Z,933.91
2018-06-15T17:21:57.197Z,933.95
2018-06-15T17:22:11.638Z,933.9
2018-06-15T17:22:24.254Z,933.91
2018-06-15T17:22:37.353Z,933.96
2018-06-15T17:22:50.630Z,933.9
2018-06-15T17:23:03.223Z,933.96
2018-06-15T17:23:16.370Z,933.92
2018-06-15T17:23:29.434Z,933.98
2018-06-15T17:23:42.488Z,933.92
2018-06-15T17:23:55.602Z,933.94
2018-06-15T17:24:08.213Z,933.95
2018-06-15T17:24:20.793Z,933.97
2018-06-15T17:24:33.622Z,933.93
2018-06-15T17:24:46.209Z,933.93
2018-06-15T17:24:58.848Z,933.95
2018-06-15T17:25:11.641Z,934
2018-06-15T17:25:24.239Z,933.93
2018-06-15T17:25:37.348Z,934.02
2018-06-15T17:25:49.979Z,934.03
2018-06-15T17:26:02.542Z,933.99
2018-06-15T17:26:14.643Z,933.99
2018-06-15T17:26:26.795Z,933.95
2018-06-15T17:26:39.388Z,933.98
2018-06-15T17:26:51.988Z,933.93
2018-06-15T17:27:05.052Z,933.96
2018-06-15T17:27:17.196Z,933.96
2018-06-15T17:27:30.257Z,933.96
2018-06-15T17:27:42.870Z,933.98
2018-06-15T17:27:55.885Z,934.01
2018-06-15T17:28:07.975Z,933.92
2018-06-15T17:28:21.028Z,933.96
2018-06-15T17:28:33.634Z,933.98
2018-06-15T17:28:46.694Z,933.97
2018-06-15T17:28:59.723Z,933.99
2018-06-15T17:29:12.493Z,933.96
2018-06-15T17:29:25.777Z,934
2018-06-15T17:29:38.866Z,933.97
2018-06-15T17:29:51.497Z,933.97
2018-06-15T17:30:04.108Z,933.98
2018-06-15T17:30:16.939Z,933.98
2018-06-15T17:30:29.548Z,933.94
2018-06-15T17:30:42.163Z,933.93
2018-06-15T17:30:55.378Z,933.97
2018-06-15T17:31:10.815Z,933.99
2018-06-15T17:31:23.116Z,933.92
2018-06-15T17:31:36.214Z,933.94
2018-06-15T17:31:49.569Z,933.92
2018-06-15T17:32:02.179Z,933.88
2018-06-15T17:32:14.285Z,933.92
2018-06-15T17:32:26.848Z,933.91
2018-06-15T17:32:39.927Z,933.89
2018-06-15T17:32:52.261Z,933.86
2018-06-15T17:33:05.557Z,933.91
2018-06-15T17:33:17.711Z,933.9
2018-06-15T17:33:30.960Z,933.85
2018-06-15T17:33:44.042Z,933.85
2018-06-15T17:33:57.106Z,933.89
2018-06-15T17:34:09.704Z,933.86
2018-06-15T17:34:22.734Z,933.84
2018-06-15T17:34:36.151Z,933.88
2018-06-15T17:34:48.759Z,933.83
2018-06-15T17:35:00.907Z,933.85
2018-06-15T17:35:13.610Z,933.85
2018-06-15T17:35:25.253Z,933.87
2018-06-15T17:35:37.812Z,933.93
2018-06-15T17:35:50.407Z,933.88
2018-06-15T17:36:03.011Z,933.9
2018-06-15T17:36:15.284Z,933.84
2018-06-15T17:36:27.496Z,933.87
2018-06-15T17:36:40.064Z,933.82
2018-06-15T17:36:52.668Z,933.88
2018-06-15T17:37:05.299Z,933.88
2018-06-15T17:37:18.749Z,933.86
2018-06-15T17:37:31.399Z,933.84
2018-06-15T17:37:44.122Z,933.85
2018-06-15T17:37:56.714Z,933.85
2018-06-15T17:38:10.249Z,933.89
2018-06-15T17:38:23.916Z,933.89
2018-06-15T17:38:36.946Z,933.85
2018-06-15T17:38:50.303Z,933.89
2018-06-15T17:39:02.853Z,933.92
2018-06-15T17:39:15.485Z,933.85
2018-06-15T17:39:28.129Z,933.91
2018-06-15T17:39:41.006Z,933.89
2018-06-15T17:39:54.144Z,933.93
2018-06-15T17:40:07.386Z,933.87
2018-06-15T17:40:19.947Z,933.89
2018-06-15T17:40:33.042Z,933.85
2018-06-15T17:40:46.375Z,933.94
2018-06-15T17:40:59.401Z,933.93
2018-06-15T17:41:11.505Z,933.89
2018-06-15T17:41:24.613Z,933.91
2018-06-15T17:41:36.746Z,933.88
2018-06-15T17:41:49.811Z,933.94
2018-06-15T17:42:01.940Z,933.95
2018-06-15T17:42:14.061Z,933.93
2018-06-15T17:42:26.827Z,933.92
2018-06-15T17:42:39.347Z,933.87
2018-06-15T17:42:52.445Z,933.94
2018-06-15T17:43:05.086Z,933.97
2018-06-15T17:43:17.675Z,933.9
2018-06-15T17:43:30.506Z,933.94
2018-06-15T17:43:43.628Z,933.9
2018-06-15T17:43:56.678Z,933.93
2018-06-15T17:44:09.742Z,933.96
2018-06-15T17:44:22.355Z,933.95
2018-06-15T17:44:35.664Z,933.97
2018-06-15T17:44:48.490Z,933.91
2018-06-15T17:45:01.097Z,933.99
2018-06-15T17:45:13.203Z,933.95
2018-06-15T17:45:26.249Z,933.98
2018-06-15T17:45:39.267Z,933.97
2018-06-15T17:45:52.306Z,933.9
2018-06-15T17:46:04.455Z,933.94
2018-06-15T17:46:17.582Z,933.95
2018-06-15T17:46:28.721Z,933.96
2018-06-15T17:46:41.485Z,933.9
2018-06-15T17:46:53.670Z,933.87
2018-06-15T17:47:05.802Z,933.89
2018-06-15T17:47:18.534Z,933.94
2018-06-15T17:47:31.109Z,933.85
2018-06-15T17:47:44.211Z,933.85
2018-06-15T17:47:57.265Z,933.87
2018-06-15T17:48:09.898Z,933.87
2018-06-15T17:48:22.533Z,933.87
2018-06-15T17:48:35.101Z,933.91
2018-06-15T17:48:46.779Z,933.89
2018-06-15T17:48:59.904Z,933.85
2018-06-15T17:49:12.239Z,933.89
2018-06-15T17:49:25.278Z,933.93
2018-06-15T17:49:37.551Z,933.92
2018-06-15T17:49:50.139Z,933.88
2018-06-15T17:50:02.489Z,933.9
2018-06-15T17:50:15.537Z,933.86
2018-06-15T17:50:28.359Z,933.84
2018-06-15T17:50:41.467Z,933.87
2018-06-15T17:50:54.104Z,933.84
2018-06-15T17:51:06.443Z,933.83
2018-06-15T17:51:19.595Z,933.87
2018-06-15T17:51:32.150Z,933.83
2018-06-15T17:51:44.722Z,933.82
2018-06-15T17:51:57.386Z,933.97
2018-06-15T17:52:09.715Z,933.87
2018-06-15T17:52:22.362Z,933.81
2018-06-15T17:52:35.200Z,933.8
2018-06-15T17:52:48.489Z,933.84
2018-06-15T17:53:01.524Z,933.79
2018-06-15T17:53:14.592Z,933.77
2018-06-15T17:53:27.713Z,933.79
2018-06-15T17:53:40.802Z,933.77
2018-06-15T17:53:52.914Z,933.86
2018-06-15T17:54:05.235Z,933.78
2018-06-15T17:54:17.773Z,933.79
2018-06-15T17:54:30.793Z,933.76
2018-06-15T17:54:42.904Z,933.76
2018-06-15T17:54:55.977Z,933.82
2018-06-15T17:55:07.826Z,933.79
2018-06-15T17:55:20.660Z,933.79
2018-06-15T17:55:32.817Z,933.8
2018-06-15T17:55:46.136Z,933.78
2018-06-15T17:55:59.215Z,933.81
2018-06-15T17:56:11.782Z,933.76
2018-06-15T17:56:24.771Z,933.8
2018-06-15T17:56:36.878Z,933.78
2018-06-15T17:56:49.465Z,933.77
2018-06-15T17:57:01.850Z,933.82
2018-06-15T17:57:14.943Z,933.78
2018-06-15T17:57:28.029Z,933.76
2018-06-15T17:57:41.183Z,933.74
2018-06-15T17:57:53.799Z,933.76
2018-06-15T17:58:06.375Z,933.75
2018-06-15T17:58:19.405Z,933.74
2018-06-15T17:58:32.470Z,933.77
2018-06-15T17:58:44.832Z,933.81
2018-06-15T17:58:58.060Z,933.74
2018-06-15T17:59:11.141Z,933.74
2018-06-15T17:59:23.746Z,933.79
2018-06-15T17:59:36.942Z,933.75
2018-06-15T17:59:49.835Z,933.72
2018-06-15T18:00:02.979Z,933.73
2018-06-15T18:00:15.619Z,933.68
2018-06-15T18:00:28.629Z,933.75
2018-06-15T18:00:41.342Z,933.69
2018-06-15T18:00:53.996Z,933.72
2018-06-15T18:01:05.636Z,933.73
2018-06-15T18:01:18.254Z,933.75
2018-06-15T18:01:31.305Z,933.73
2018-06-15T18:01:43.881Z,933.7
2018-06-15T18:01:56.931Z,933.65
2018-06-15T18:02:09.060Z,933.71
2018-06-15T18:02:21.631Z,933.72
2018-06-15T18:02:34.723Z,933.69
2018-06-15T18:02:47.750Z,933.69
2018-06-15T18:03:00.356Z,933.68
2018-06-15T18:03:12.948Z,933.68
2018-06-15T18:03:26.217Z,933.68
2018-06-15T18:03:38.329Z,933.67
2018-06-15T18:03:51.384Z,933.62
2018-06-15T18:04:03.042Z,933.69
2018-06-15T18:04:15.182Z,933.73
2018-06-15T18:04:26.866Z,933.69
2018-06-15T18:04:39.399Z,933.66
2018-06-15T18:04:52.192Z,933.71
2018-06-15T18:05:04.728Z,933.7
2018-06-15T18:05:17.674Z,933.69
2018-06-15T18:05:30.269Z,933.71
2018-06-15T18:05:42.882Z,933.69
2018-06-15T18:05:55.954Z,933.73
2018-06-15T18:06:09.000Z,933.77
2018-06-15T18:06:21.577Z,933.72
2018-06-15T18:06:34.672Z,933.73
2018-06-15T18:06:46.754Z,933.73
2018-06-15T18:06:59.307Z,933.77
2018-06-15T18:07:11.413Z,933.84
2018-06-15T18:07:24.465Z,933.78
2018-06-15T18:07:37.468Z,933.75
2018-06-15T18:07:49.588Z,933.78
2018-06-15T18:08:02.637Z,933.75
2018-06-15T18:08:14.757Z,933.82
2018-06-15T18:08:27.426Z,933.83
2018-06-15T18:08:40.871Z,933.81
2018-06-15T18:08:52.635Z,933.78
2018-06-15T18:09:06.232Z,933.83
2018-06-15T18:09:19.316Z,933.85
2018-06-15T18:09:31.923Z,933.81
2018-06-15T18:09:45.009Z,933.78
2018-06-15T18:09:58.140Z,933.87
2018-06-15T18:10:11.425Z,933.81
2018-06-15T18:10:24.463Z,933.82
2018-06-15T18:10:37.529Z,933.84
2018-06-15T18:10:50.553Z,933.9
2018-06-15T18:11:03.182Z,933.81
2018-06-15T18:11:15.768Z,933.84
2018-06-15T18:11:28.839Z,933.79
2018-06-15T18:11:41.893Z,933.8
2018-06-15T18:11:54.585Z,933.77
2018-06-15T18:12:07.192Z,933.81
2018-06-15T18:12:19.814Z,933.81
2018-06-15T18:12:32.865Z,933.79
2018-06-15T18:12:45.893Z,933.81
2018-06-15T18:12:57.956Z,933.79
2018-06-15T18:13:10.100Z,933.79
2018-06-15T18:13:23.199Z,933.8
2018-06-15T18:13:35.303Z,933.82
2018-06-15T18:13:48.548Z,933.8
2018-06-15T18:14:01.854Z,933.83
2018-06-15T18:14:14.830Z,933.85
2018-06-15T18:14:27.323Z,933.87
2018-06-15T18:14:40.309Z,933.84
2018-06-15T18:14:53.294Z,933.84
2018-06-15T18:15:05.879Z,933.83
2018-06-15T18:15:18.889Z,933.84
2018-06-15T18:15:31.856Z,933.81
2018-06-15T18:15:44.595Z,933.81
2018-06-15T18:15:59.062Z,933.89
2018-06-15T18:16:11.151Z,933.77
2018-06-15T18:16:25.611Z,933.82
2018-06-15T18:16:38.644Z,933.81
2018-06-15T18:16:51.193Z,933.83
2018-06-15T18:17:03.858Z,933.82
2018-06-15T18:17:16.580Z,933.83
2018-06-15T18:17:29.466Z,933.84
2018-06-15T18:17:42.283Z,933.82
2018-06-15T18:17:54.836Z,933.81
2018-06-15T18:18:07.926Z,933.79
2018-06-15T18:18:20.955Z,933.82
2018-06-15T18:18:34.206Z,933.83
2018-06-15T18:18:47.245Z,933.75
2018-06-15T18:19:00.334Z,933.76
2018-06-15T18:19:12.942Z,933.73
2018-06-15T18:19:25.933Z,933.76
2018-06-15T18:19:38.029Z,933.73
2018-06-15T18:19:51.154Z,933.75
2018-06-15T18:20:03.443Z,933.77
2018-06-15T18:20:16.046Z,933.74
2018-06-15T18:20:28.665Z,933.77
2018-06-15T18:20:41.269Z,933.81
2018-06-15T18:20:53.905Z,933.82
2018-06-15T18:21:07.167Z,933.81
2018-06-15T18:21:20.217Z,933.81
2018-06-15T18:21:31.877Z,933.85
2018-06-15T18:21:44.462Z,933.83
2018-06-15T18:21:57.028Z,933.81
2018-06-15T18:22:09.667Z,933.83
2018-06-15T18:22:22.184Z,933.81
2018-06-15T18:22:34.771Z,933.81
2018-06-15T18:22:47.824Z,933.8
2018-06-15T18:22:59.596Z,933.81
2018-06-15T18:23:12.664Z,933.82
2018-06-15T18:23:25.885Z,933.86
2018-06-15T18:23:38.445Z,933.83
2018-06-15T18:23:50.726Z,933.82
2018-06-15T18:24:03.743Z,933.87
2018-06-15T18:24:16.325Z,933.87
2018-06-15T18:24:28.905Z,933.87
2018-06-15T18:24:41.564Z,933.9
2018-06-15T18:24:54.141Z,933.85
2018-06-15T18:25:06.322Z,933.91
2018-06-15T18:25:18.904Z,933.96
2018-06-15T18:25:32.162Z,933.89
2018-06-15T18:25:44.933Z,933.85
2018-06-15T18:25:57.972Z,933.85
2018-06-15T18:26:10.738Z,933.86
2018-06-15T18:26:23.809Z,933.89
2018-06-15T18:26:36.817Z,933.88
2018-06-15T18:26:48.914Z,933.88
2018-06-15T18:27:01.060Z,933.86
2018-06-15T18:27:14.236Z,933.91
2018-06-15T18:27:27.289Z,933.85
2018-06-15T18:27:39.856Z,933.87
2018-06-15T18:27:51.974Z,933.87
2018-06-15T18:28:04.524Z,933.89
2018-06-15T18:28:17.058Z,933.93
2018-06-15T18:28:29.749Z,933.85
2018-06-15T18:28:42.315Z,933.84
2018-06-15T18:28:54.435Z,933.87
2018-06-15T18:29:07.487Z,933.88
2018-06-15T18:29:19.169Z,933.85
2018-06-15T18:29:31.699Z,933.85
2018-06-15T18:29:44.542Z,933.85
2018-06-15T18:29:57.651Z,933.9
2018-06-15T18:30:10.729Z,933.89
2018-06-15T18:30:22.856Z,933.85
2018-06-15T18:30:34.991Z,933.89
2018-06-15T18:30:47.576Z,933.88
2018-06-15T18:31:00.663Z,933.83
2018-06-15T18:31:13.697Z,933.85
2018-06-15T18:31:26.279Z,933.9
2018-06-15T18:31:39.311Z,933.88
2018-06-15T18:31:52.334Z,933.92
2018-06-15T18:32:04.898Z,933.85
2018-06-15T18:32:17.416Z,933.84
2018-06-15T18:32:30.476Z,933.84
2018-06-15T18:32:43.249Z,933.9
2018-06-15T18:32:56.304Z,933.86
2018-06-15T18:33:10.300Z,933.87
2018-06-15T18:33:22.892Z,933.87
2018-06-15T18:33:35.588Z,933.85
2018-06-15T18:33:48.720Z,933.88
2018-06-15T18:34:00.836Z,933.94
2018-06-15T18:34:13.823Z,933.92
2018-06-15T18:34:26.493Z,933.93
2018-06-15T18:34:39.085Z,933.93
2018-06-15T18:34:53.658Z,933.87
2018-06-15T18:35:06.250Z,933.91
2018-06-15T18:35:18.345Z,933.87
2018-06-15T18:35:30.905Z,933.92
2018-06-15T18:35:43.981Z,933.97
2018-06-15T18:35:56.602Z,933.94
2018-06-15T18:36:09.643Z,933.97
2018-06-15T18:36:21.760Z,933.96
2018-06-15T18:36:34.542Z,933.92
2018-06-15T18:36:47.143Z,933.92
2018-06-15T18:37:00.154Z,933.92
2018-06-15T18:37:12.285Z,933.9
2018-06-15T18:37:24.475Z,933.93
2018-06-15T18:37:36.615Z,933.9
2018-06-15T18:37:50.020Z,933.96
2018-06-15T18:38:03.137Z,933.94
2018-06-15T18:38:16.155Z,933.98
2018-06-15T18:38:28.746Z,933.93
2018-06-15T18:38:41.915Z,933.97
2018-06-15T18:38:54.038Z,933.95
2018-06-15T18:39:07.096Z,933.98
2018-06-15T18:39:19.860Z,934
2018-06-15T18:39:32.874Z,933.93
2018-06-15T18:39:46.169Z,933.98
2018-06-15T18:39:59.341Z,933.98
2018-06-15T18:40:11.448Z,933.96
2018-06-15T18:40:24.433Z,934.04
2018-06-15T18:40:37.013Z,933.99
2018-06-15T18:40:50.070Z,933.96
2018-06-15T18:41:02.612Z,933.97
2018-06-15T18:41:15.713Z,933.99
2018-06-15T18:41:27.791Z,933.99
2018-06-15T18:41:39.429Z,933.98
2018-06-15T18:41:51.955Z,933.98
2018-06-15T18:42:04.975Z,934
2018-06-15T18:42:17.953Z,933.95
2018-06-15T18:42:30.998Z,933.98
2018-06-15T18:42:43.979Z,933.98
2018-06-15T18:42:57.273Z,934
2018-06-15T18:43:10.311Z,933.96
2018-06-15T18:43:22.896Z,933.96
2018-06-15T18:43:35.501Z,933.96
2018-06-15T18:43:48.082Z,933.99
2018-06-15T18:44:01.080Z,933.99
2018-06-15T18:44:13.601Z,933.96
2018-06-15T18:44:26.207Z,933.97
2018-06-15T18:44:38.756Z,933.97
2018-06-15T18:44:51.897Z,933.92
2018-06-15T18:45:03.949Z,933.94
2018-06-15T18:45:16.550Z,933.97
2018-06-15T18:45:29.107Z,933.93
2018-06-15T18:45:41.714Z,933.93
2018-06-15T18:45:54.231Z,933.94
2018-06-15T18:46:06.291Z,933.95
2018-06-15T18:46:18.835Z,933.99
2018-06-15T18:46:30.962Z,933.96
2018-06-15T18:46:43.088Z,933.96
2018-06-15T18:46:55.636Z,933.99
2018-06-15T18:47:07.750Z,933.94
2018-06-15T18:47:21.128Z,934
2018-06-15T18:47:34.186Z,933.96
2018-06-15T18:47:46.748Z,933.95
2018-06-15T18:47:59.280Z,933.93
2018-06-15T18:48:11.337Z,934
2018-06-15T18:48:23.919Z,934.01
2018-06-15T18:48:36.466Z,934.01
2018-06-15T18:48:49.868Z,934.01
2018-06-15T18:49:02.112Z,934
2018-06-15T18:49:14.648Z,933.98
2018-06-15T18:49:27.193Z,933.97
2018-06-15T18:49:39.790Z,933.98
2018-06-15T18:49:52.810Z,934.02
2018-06-15T18:50:04.954Z,934
2018-06-15T18:50:18.022Z,934.01
2018-06-15T18:50:30.627Z,934
2018-06-15T18:50:43.694Z,933.98
2018-06-15T18:50:56.682Z,933.98
2018-06-15T18:51:08.740Z,934
2018-06-15T18:51:21.321Z,933.98
2018-06-15T18:51:33.429Z,934
2018-06-15T18:51:45.984Z,933.98
2018-06-15T18:51:58.553Z,933.99
2018-06-15T18:52:11.648Z,934.01
2018-06-15T18:52:24.682Z,934.04
2018-06-15T18:52:37.783Z,934.03
2018-06-15T18:52:50.338Z,934.04
2018-06-15T18:53:02.564Z,934.05
2018-06-15T18:53:15.167Z,934.03
2018-06-15T18:53:27.706Z,934.03
2018-06-15T18:53:40.236Z,934.04
2018-06-15T18:53:52.351Z,934.01
2018-06-15T18:54:04.899Z,934.07
2018-06-15T18:54:17.438Z,934.03
2018-06-15T18:54:30.224Z,934
2018-06-15T18:54:42.538Z,934
2018-06-15T18:54:55.635Z,933.98
2018-06-15T18:55:08.131Z,934